CNA24TQ GCFV-GCLP
Flight info
| Callsign | CNA24TQ |
|---|---|
| Flight time | 0h 48m |
| Altitude | 7000 |
| Route | LORPO DCT LALTO DCT TOMOS |
| Aircraft | DA42/L-SBDGRY/S |
Departure
| Time | 2026-04-26 23:40 |
|---|---|
| Airport | Fuerteventura Airport (GCFV) |
Arrival
| Time | 2026-04-27 00:28 |
|---|---|
| Airport | Gran Canaria Airport (GCLP) |
| Time | Latitude | Longitude | Altitude | Speed | Heading |
|---|---|---|---|---|---|
| 2026-04-26 23:40 | 28.40239 | -14.03455 | 6142 ft | 168 kts | 275° |
| 2026-04-26 23:40 | 28.40286 | -14.04777 | 6238 ft | 167 kts | 276° |
| 2026-04-26 23:40 | 28.40339 | -14.06103 | 6345 ft | 167 kts | 275° |
| 2026-04-26 23:40 | 28.40388 | -14.07421 | 6456 ft | 167 kts | 274° |
| 2026-04-26 23:41 | 28.40435 | -14.08738 | 6526 ft | 167 kts | 274° |
| 2026-04-26 23:41 | 28.40483 | -14.10042 | 6643 ft | 167 kts | 274° |
| 2026-04-26 23:41 | 28.40530 | -14.11364 | 6745 ft | 167 kts | 274° |
| 2026-04-26 23:41 | 28.40578 | -14.12689 | 6842 ft | 167 kts | 274° |
| 2026-04-26 23:42 | 28.40626 | -14.14013 | 6943 ft | 168 kts | 276° |
| 2026-04-26 23:42 | 28.40719 | -14.16647 | 7148 ft | 168 kts | 275° |
| 2026-04-26 23:42 | 28.40769 | -14.17975 | 7246 ft | 168 kts | 274° |
| 2026-04-26 23:43 | 28.40817 | -14.19302 | 7340 ft | 168 kts | 274° |
| 2026-04-26 23:43 | 28.40864 | -14.20629 | 7436 ft | 168 kts | 274° |
| 2026-04-26 23:43 | 28.40910 | -14.21955 | 7536 ft | 168 kts | 274° |
| 2026-04-26 23:43 | 28.40957 | -14.23284 | 7634 ft | 168 kts | 274° |
| 2026-04-26 23:44 | 28.40996 | -14.24591 | 7733 ft | 168 kts | 270° |
| 2026-04-26 23:44 | 28.40691 | -14.25877 | 7824 ft | 171 kts | 244° |
| 2026-04-26 23:44 | 28.40118 | -14.27069 | 7929 ft | 171 kts | 243° |
| 2026-04-26 23:44 | 28.39541 | -14.28259 | 8031 ft | 171 kts | 242° |
| 2026-04-26 23:45 | 28.38965 | -14.29445 | 8090 ft | 173 kts | 242° |
| 2026-04-26 23:45 | 28.38388 | -14.30634 | 8150 ft | 175 kts | 242° |
| 2026-04-26 23:45 | 28.37800 | -14.31846 | 8214 ft | 175 kts | 242° |
| 2026-04-26 23:45 | 28.37210 | -14.33063 | 8279 ft | 175 kts | 242° |
| 2026-04-26 23:46 | 28.36618 | -14.34283 | 8338 ft | 176 kts | 242° |
| 2026-04-26 23:46 | 28.36053 | -14.35450 | 8444 ft | 175 kts | 241° |
| 2026-04-26 23:46 | 28.35467 | -14.36660 | 8461 ft | 175 kts | 242° |
| 2026-04-26 23:46 | 28.34871 | -14.37883 | 8465 ft | 178 kts | 242° |
| 2026-04-26 23:47 | 28.34267 | -14.39127 | 8466 ft | 181 kts | 242° |
| 2026-04-26 23:47 | 28.33665 | -14.40366 | 8465 ft | 182 kts | 242° |
| 2026-04-26 23:47 | 28.33053 | -14.41628 | 8466 ft | 183 kts | 242° |
| 2026-04-26 23:47 | 28.32439 | -14.42893 | 8471 ft | 183 kts | 242° |
| 2026-04-26 23:48 | 28.31819 | -14.44166 | 8472 ft | 183 kts | 242° |
| 2026-04-26 23:48 | 28.31205 | -14.45429 | 8472 ft | 183 kts | 242° |
| 2026-04-26 23:48 | 28.30590 | -14.46695 | 8471 ft | 183 kts | 242° |
| 2026-04-26 23:48 | 28.29974 | -14.47959 | 8464 ft | 183 kts | 242° |
| 2026-04-26 23:49 | 28.29357 | -14.49225 | 8465 ft | 183 kts | 242° |
| 2026-04-26 23:49 | 28.28747 | -14.50479 | 8470 ft | 183 kts | 242° |
| 2026-04-26 23:49 | 28.28131 | -14.51744 | 8469 ft | 183 kts | 242° |
| 2026-04-26 23:49 | 28.27515 | -14.53010 | 8469 ft | 183 kts | 242° |
| 2026-04-26 23:50 | 28.26896 | -14.54280 | 8469 ft | 184 kts | 242° |
| 2026-04-26 23:50 | 28.26276 | -14.55552 | 8469 ft | 183 kts | 242° |
| 2026-04-26 23:50 | 28.25657 | -14.56820 | 8469 ft | 183 kts | 242° |
| 2026-04-26 23:50 | 28.25047 | -14.58070 | 8471 ft | 183 kts | 242° |
| 2026-04-26 23:51 | 28.24431 | -14.59334 | 8471 ft | 183 kts | 242° |
| 2026-04-26 23:51 | 28.23814 | -14.60598 | 8471 ft | 183 kts | 242° |
| 2026-04-26 23:51 | 28.23195 | -14.61864 | 8471 ft | 183 kts | 243° |
| 2026-04-26 23:51 | 28.22587 | -14.63112 | 8472 ft | 183 kts | 242° |
| 2026-04-26 23:52 | 28.21969 | -14.64373 | 8469 ft | 183 kts | 242° |
| 2026-04-26 23:52 | 28.21125 | -14.65458 | 8468 ft | 185 kts | 218° |
| 2026-04-26 23:52 | 28.20030 | -14.66232 | 8469 ft | 185 kts | 212° |
| 2026-04-26 23:52 | 28.18924 | -14.66989 | 8467 ft | 185 kts | 212° |
| 2026-04-26 23:53 | 28.17835 | -14.67732 | 8469 ft | 185 kts | 212° |
| 2026-04-26 23:53 | 28.16732 | -14.68485 | 8470 ft | 184 kts | 212° |
| 2026-04-26 23:53 | 28.15633 | -14.69235 | 8472 ft | 184 kts | 212° |
| 2026-04-26 23:53 | 28.14535 | -14.69985 | 8471 ft | 184 kts | 212° |
| 2026-04-26 23:54 | 28.13442 | -14.70733 | 8471 ft | 183 kts | 212° |
| 2026-04-26 23:54 | 28.12346 | -14.71481 | 8471 ft | 183 kts | 212° |
| 2026-04-26 23:54 | 28.11255 | -14.72225 | 8470 ft | 183 kts | 213° |
| 2026-04-26 23:54 | 28.10164 | -14.72970 | 8470 ft | 183 kts | 212° |
| 2026-04-26 23:55 | 28.09085 | -14.73708 | 8471 ft | 183 kts | 212° |
| 2026-04-26 23:55 | 28.07994 | -14.74451 | 8472 ft | 183 kts | 212° |
| 2026-04-26 23:55 | 28.06899 | -14.75199 | 8470 ft | 183 kts | 212° |
| 2026-04-26 23:55 | 28.05808 | -14.75943 | 8471 ft | 183 kts | 212° |
| 2026-04-26 23:56 | 28.04718 | -14.76686 | 8471 ft | 183 kts | 212° |
| 2026-04-26 23:56 | 28.03626 | -14.77430 | 8470 ft | 183 kts | 212° |
| 2026-04-26 23:56 | 28.02546 | -14.78166 | 8471 ft | 183 kts | 212° |
| 2026-04-26 23:56 | 28.01451 | -14.78912 | 8474 ft | 183 kts | 212° |
| 2026-04-26 23:57 | 28.00368 | -14.79651 | 8474 ft | 183 kts | 212° |
| 2026-04-26 23:57 | 27.99276 | -14.80395 | 8473 ft | 183 kts | 212° |
| 2026-04-26 23:57 | 27.98181 | -14.81140 | 8474 ft | 183 kts | 212° |
| 2026-04-26 23:57 | 27.97088 | -14.81884 | 8475 ft | 183 kts | 212° |
| 2026-04-26 23:58 | 27.95992 | -14.82630 | 8475 ft | 183 kts | 212° |
| 2026-04-26 23:58 | 27.94899 | -14.83374 | 8474 ft | 183 kts | 212° |
| 2026-04-26 23:58 | 27.93821 | -14.84106 | 8474 ft | 183 kts | 213° |
| 2026-04-26 23:58 | 27.92728 | -14.84851 | 8469 ft | 183 kts | 212° |
| 2026-04-26 23:59 | 27.91636 | -14.85593 | 8471 ft | 183 kts | 213° |
| 2026-04-26 23:59 | 27.90543 | -14.86336 | 8469 ft | 183 kts | 213° |
| 2026-04-26 23:59 | 27.89460 | -14.87072 | 8468 ft | 183 kts | 212° |
| 2026-04-26 23:59 | 27.88366 | -14.87815 | 8473 ft | 183 kts | 212° |
| 2026-04-27 00:00 | 27.87272 | -14.88558 | 8471 ft | 183 kts | 212° |
| 2026-04-27 00:00 | 27.86179 | -14.89301 | 8474 ft | 183 kts | 212° |
| 2026-04-27 00:00 | 27.85085 | -14.90043 | 8475 ft | 183 kts | 212° |
| 2026-04-27 00:00 | 27.83995 | -14.90783 | 8472 ft | 183 kts | 213° |
| 2026-04-27 00:01 | 27.82903 | -14.91525 | 8474 ft | 183 kts | 213° |
| 2026-04-27 00:01 | 27.81808 | -14.92267 | 8473 ft | 183 kts | 212° |
| 2026-04-27 00:01 | 27.80727 | -14.93001 | 8473 ft | 183 kts | 213° |
| 2026-04-27 00:01 | 27.79635 | -14.93741 | 8478 ft | 183 kts | 213° |
| 2026-04-27 00:02 | 27.78542 | -14.94483 | 8469 ft | 183 kts | 212° |
| 2026-04-27 00:02 | 27.77445 | -14.95226 | 8469 ft | 183 kts | 212° |
| 2026-04-27 00:02 | 27.76349 | -14.95969 | 8471 ft | 184 kts | 212° |
| 2026-04-27 00:02 | 27.75253 | -14.96712 | 8473 ft | 183 kts | 212° |
| 2026-04-27 00:03 | 27.74170 | -14.97445 | 8473 ft | 183 kts | 212° |
| 2026-04-27 00:03 | 27.73073 | -14.98188 | 8473 ft | 184 kts | 213° |
| 2026-04-27 00:03 | 27.71976 | -14.98932 | 8470 ft | 184 kts | 212° |
| 2026-04-27 00:03 | 27.70878 | -14.99674 | 8470 ft | 184 kts | 212° |
| 2026-04-27 00:04 | 27.69936 | -15.00629 | 8468 ft | 182 kts | 235° |
| 2026-04-27 00:04 | 27.69407 | -15.01887 | 8470 ft | 180 kts | 254° |
| 2026-04-27 00:04 | 27.69037 | -15.03236 | 8471 ft | 180 kts | 254° |
| 2026-04-27 00:04 | 27.68669 | -15.04583 | 8472 ft | 180 kts | 255° |
| 2026-04-27 00:05 | 27.68303 | -15.05933 | 8474 ft | 180 kts | 254° |
| 2026-04-27 00:05 | 27.67936 | -15.07284 | 8472 ft | 180 kts | 254° |
| 2026-04-27 00:05 | 27.67567 | -15.08637 | 8474 ft | 180 kts | 254° |
| 2026-04-27 00:05 | 27.67199 | -15.09986 | 8470 ft | 180 kts | 255° |
| 2026-04-27 00:06 | 27.66829 | -15.11342 | 8470 ft | 180 kts | 255° |
| 2026-04-27 00:06 | 27.66467 | -15.12677 | 8470 ft | 180 kts | 254° |
| 2026-04-27 00:06 | 27.66097 | -15.14029 | 8470 ft | 180 kts | 255° |
| 2026-04-27 00:06 | 27.65728 | -15.15379 | 8473 ft | 180 kts | 255° |
| 2026-04-27 00:07 | 27.65360 | -15.16729 | 8471 ft | 180 kts | 255° |
| 2026-04-27 00:07 | 27.64991 | -15.18080 | 8431 ft | 182 kts | 254° |
| 2026-04-27 00:07 | 27.64650 | -15.19474 | 8314 ft | 186 kts | 264° |
| 2026-04-27 00:07 | 27.64872 | -15.20895 | 8195 ft | 186 kts | 292° |
| 2026-04-27 00:08 | 27.65363 | -15.22248 | 8091 ft | 187 kts | 294° |
| 2026-04-27 00:08 | 27.65868 | -15.23580 | 7989 ft | 187 kts | 294° |
| 2026-04-27 00:08 | 27.66387 | -15.24932 | 7895 ft | 187 kts | 295° |
| 2026-04-27 00:08 | 27.66898 | -15.26287 | 7809 ft | 187 kts | 295° |
| 2026-04-27 00:09 | 27.67399 | -15.27643 | 7719 ft | 186 kts | 294° |
| 2026-04-27 00:09 | 27.67893 | -15.28981 | 7627 ft | 186 kts | 294° |
| 2026-04-27 00:09 | 27.68396 | -15.30335 | 7535 ft | 187 kts | 294° |
| 2026-04-27 00:09 | 27.68903 | -15.31690 | 7418 ft | 187 kts | 295° |
| 2026-04-27 00:10 | 27.69392 | -15.33051 | 7289 ft | 187 kts | 294° |
| 2026-04-27 00:10 | 27.69870 | -15.34400 | 7170 ft | 187 kts | 294° |
| 2026-04-27 00:10 | 27.70351 | -15.35775 | 7037 ft | 188 kts | 295° |
| 2026-04-27 00:10 | 27.70828 | -15.37156 | 6927 ft | 189 kts | 294° |
| 2026-04-27 00:11 | 27.71300 | -15.38540 | 6812 ft | 190 kts | 294° |
| 2026-04-27 00:11 | 27.71770 | -15.39939 | 6681 ft | 190 kts | 294° |
| 2026-04-27 00:11 | 27.72231 | -15.41315 | 6566 ft | 190 kts | 294° |
| 2026-04-27 00:11 | 27.72933 | -15.42532 | 6425 ft | 184 kts | 324° |
| 2026-04-27 00:12 | 27.74091 | -15.43034 | 6280 ft | 176 kts | 358° |
| 2026-04-27 00:12 | 27.75247 | -15.43046 | 6128 ft | 153 kts | 1° |
| 2026-04-27 00:12 | 27.76244 | -15.43053 | 5951 ft | 138 kts | 0° |
| 2026-04-27 00:12 | 27.77173 | -15.43072 | 5770 ft | 131 kts | 359° |
| 2026-04-27 00:13 | 27.78058 | -15.43094 | 5583 ft | 126 kts | 359° |
| 2026-04-27 00:13 | 27.78922 | -15.43117 | 5402 ft | 124 kts | 359° |
| 2026-04-27 00:13 | 27.79783 | -15.43142 | 5220 ft | 123 kts | 0° |
| 2026-04-27 00:13 | 27.80658 | -15.43162 | 4938 ft | 127 kts | 359° |
| 2026-04-27 00:14 | 27.81545 | -15.43184 | 4620 ft | 127 kts | 359° |
| 2026-04-27 00:14 | 27.82396 | -15.43209 | 4408 ft | 114 kts | 359° |
| 2026-04-27 00:14 | 27.83140 | -15.43093 | 4135 ft | 102 kts | 15° |
| 2026-04-27 00:14 | 27.83761 | -15.42818 | 3742 ft | 93 kts | 17° |
| 2026-04-27 00:15 | 27.84362 | -15.42554 | 3380 ft | 92 kts | 17° |
| 2026-04-27 00:15 | 27.84955 | -15.42294 | 3028 ft | 91 kts | 17° |
| 2026-04-27 00:15 | 27.85547 | -15.42035 | 2683 ft | 91 kts | 19° |
| 2026-04-27 00:15 | 27.86133 | -15.41776 | 2262 ft | 91 kts | 18° |
| 2026-04-27 00:16 | 27.86726 | -15.41514 | 1841 ft | 91 kts | 17° |
| 2026-04-27 00:16 | 27.87302 | -15.41259 | 1458 ft | 87 kts | 18° |
| 2026-04-27 00:16 | 27.87877 | -15.40990 | 1209 ft | 90 kts | 19° |
| 2026-04-27 00:16 | 27.88461 | -15.40754 | 1049 ft | 89 kts | 18° |
| 2026-04-27 00:17 | 27.89056 | -15.40492 | 910 ft | 95 kts | 18° |
| 2026-04-27 00:17 | 27.89667 | -15.40210 | 754 ft | 99 kts | 14° |
| 2026-04-27 00:17 | 27.90305 | -15.39943 | 574 ft | 96 kts | 19° |
| 2026-04-27 00:17 | 27.90867 | -15.39690 | 350 ft | 80 kts | 18° |
| 2026-04-27 00:18 | 27.91397 | -15.39446 | 230 ft | 83 kts | 17° |
| 2026-04-27 00:18 | 27.91900 | -15.39226 | 122 ft | 69 kts | 16° |
| 2026-04-27 00:18 | 27.92167 | -15.39111 | 76 ft | 53 kts | 18° |
| 2026-04-27 00:18 | 27.92543 | -15.38935 | 104 ft | 74 kts | 22° |
| 2026-04-27 00:19 | 27.93015 | -15.38662 | 404 ft | 76 kts | 19° |
| 2026-04-27 00:19 | 27.93603 | -15.38337 | 769 ft | 74 kts | 17° |
| 2026-04-27 00:19 | 27.93917 | -15.38180 | 948 ft | 76 kts | 17° |
| 2026-04-27 00:19 | 27.94304 | -15.37790 | 1285 ft | 89 kts | 65° |
| 2026-04-27 00:20 | 27.94175 | -15.37046 | 1654 ft | 101 kts | 107° |
| 2026-04-27 00:20 | 27.93862 | -15.36343 | 2056 ft | 99 kts | 99° |
| 2026-04-27 00:20 | 27.93657 | -15.35533 | 2179 ft | 128 kts | 103° |
| 2026-04-27 00:20 | 27.93234 | -15.34534 | 2242 ft | 151 kts | 109° |
| 2026-04-27 00:21 | 27.92779 | -15.33443 | 2357 ft | 159 kts | 108° |
| 2026-04-27 00:21 | 27.92307 | -15.32276 | 2427 ft | 167 kts | 109° |
| 2026-04-27 00:21 | 27.91514 | -15.31271 | 2479 ft | 180 kts | 148° |
| 2026-04-27 00:21 | 27.90283 | -15.31005 | 2531 ft | 184 kts | 189° |
| 2026-04-27 00:22 | 27.89069 | -15.31429 | 2587 ft | 182 kts | 203° |
| 2026-04-27 00:22 | 27.87892 | -15.31945 | 2584 ft | 185 kts | 204° |
| 2026-04-27 00:22 | 27.86685 | -15.32483 | 2589 ft | 187 kts | 204° |
| 2026-04-27 00:22 | 27.85477 | -15.33024 | 2587 ft | 186 kts | 205° |
| 2026-04-27 00:23 | 27.84268 | -15.33556 | 2585 ft | 186 kts | 204° |
| 2026-04-27 00:23 | 27.83097 | -15.34158 | 2581 ft | 183 kts | 220° |
| 2026-04-27 00:23 | 27.82395 | -15.35284 | 2581 ft | 173 kts | 261° |
| 2026-04-27 00:23 | 27.82433 | -15.36541 | 2584 ft | 154 kts | 292° |
| 2026-04-27 00:24 | 27.82732 | -15.37665 | 2581 ft | 145 kts | 294° |
| 2026-04-27 00:24 | 27.83030 | -15.38764 | 2478 ft | 146 kts | 294° |
| 2026-04-27 00:24 | 27.83334 | -15.39866 | 2324 ft | 144 kts | 294° |
| 2026-04-27 00:24 | 27.83632 | -15.40892 | 2155 ft | 130 kts | 302° |
| 2026-04-27 00:25 | 27.84175 | -15.41621 | 1992 ft | 117 kts | 338° |
| 2026-04-27 00:25 | 27.84932 | -15.41661 | 1831 ft | 109 kts | 12° |
| 2026-04-27 00:25 | 27.85652 | -15.41402 | 1593 ft | 115 kts | 17° |
| 2026-04-27 00:25 | 27.86385 | -15.41189 | 1544 ft | 103 kts | 4° |
| 2026-04-27 00:26 | 27.87071 | -15.41071 | 1491 ft | 104 kts | 5° |
| 2026-04-27 00:26 | 27.87801 | -15.40995 | 1253 ft | 103 kts | 7° |
| 2026-04-27 00:26 | 27.88463 | -15.40789 | 1105 ft | 100 kts | 20° |
| 2026-04-27 00:26 | 27.89132 | -15.40451 | 948 ft | 110 kts | 19° |
| 2026-04-27 00:27 | 27.89855 | -15.40126 | 760 ft | 111 kts | 17° |
| 2026-04-27 00:27 | 27.90562 | -15.39834 | 552 ft | 106 kts | 19° |
| 2026-04-27 00:27 | 27.91253 | -15.39526 | 327 ft | 108 kts | 17° |
| 2026-04-27 00:27 | 27.91914 | -15.39219 | 153 ft | 98 kts | 17° |
| 2026-04-27 00:28 | 27.92450 | -15.38980 | 65 ft | 62 kts | 14° |
| 2026-04-27 00:28 | 27.92753 | -15.38849 | 63 ft | 34 kts | 21° |
| 2026-04-27 00:28 | 27.92969 | -15.38758 | 57 ft | 31 kts | 16° |
| 2026-04-27 00:28 | 27.93135 | -15.38716 | 60 ft | 19 kts | 357° |
| 2026-04-27 00:29 | 27.93277 | -15.38739 | 65 ft | 21 kts | 354° |
| 2026-04-27 00:29 | 27.93412 | -15.38770 | 67 ft | 15 kts | 319° |
| 2026-04-27 00:29 | 27.93448 | -15.38868 | 75 ft | 16 kts | 282° |
| 2026-04-27 00:29 | 27.93441 | -15.38974 | 81 ft | 7 kts | 311° |
| 2026-04-27 00:30 | 27.93458 | -15.38982 | 82 ft | 0 kts | 360° |